createdAt,value
2022-08-03T00:01:37.283Z,82.08
2022-08-03T00:04:07.969Z,82.27
2022-08-03T00:06:37.172Z,82.43
2022-08-03T00:09:07.214Z,82.55
2022-08-03T00:11:34.994Z,82.80
2022-08-03T00:14:02.422Z,82.81
2022-08-03T00:16:29.660Z,82.20
2022-08-03T00:18:56.983Z,82.45
2022-08-03T00:21:24.174Z,82.77
2022-08-03T00:23:52.862Z,82.96
2022-08-03T00:26:22.117Z,83.07
2022-08-03T00:28:50.224Z,82.94
2022-08-03T00:31:19.720Z,82.68
2022-08-03T00:33:59.117Z,82.95
2022-08-03T00:36:27.105Z,83.37
2022-08-03T00:38:54.447Z,83.12
2022-08-03T00:41:21.765Z,82.50
2022-08-03T00:43:49.016Z,82.06
2022-08-03T00:46:20.800Z,82.21
2022-08-03T00:48:50.299Z,81.58
2022-08-03T00:51:18.957Z,81.87
2022-08-03T00:53:46.767Z,81.56
2022-08-03T00:56:15.846Z,81.45
2022-08-03T00:58:45.118Z,81.08
2022-08-03T01:01:12.917Z,81.31
2022-08-03T01:03:40.901Z,81.21
2022-08-03T01:06:25.659Z,81.82
2022-08-03T01:09:02.771Z,82.02
2022-08-03T01:11:59.844Z,82.23
2022-08-03T01:14:38.219Z,82.62
2022-08-03T01:17:15.234Z,83.12
2022-08-03T01:19:56.563Z,83.58
2022-08-03T01:22:52.298Z,84.49
2022-08-03T01:25:40.449Z,84.83
2022-08-03T01:28:34.505Z,85.34
2022-08-03T01:31:05.676Z,85.41
2022-08-03T01:33:40.985Z,85.51
2022-08-03T01:36:14.661Z,85.41
2022-08-03T01:38:55.651Z,85.92
2022-08-03T01:41:29.476Z,86.28
2022-08-03T01:44:30.182Z,86.63
2022-08-03T01:46:50.071Z,87.09
2022-08-03T01:49:18.349Z,87.50
2022-08-03T01:51:58.647Z,87.07
2022-08-03T01:54:37.189Z,87.73
2022-08-03T01:57:05.287Z,87.14
2022-08-03T01:59:35.970Z,87.89
2022-08-03T02:02:16.024Z,88.06
2022-08-03T02:04:56.591Z,88.18
2022-08-03T02:07:26.265Z,87.92
2022-08-03T02:09:55.739Z,85.93
2022-08-03T02:12:25.766Z,84.41
2022-08-03T02:15:15.403Z,83.05
2022-08-03T02:17:45.995Z,81.85
2022-08-03T02:20:14.113Z,81.31
2022-08-03T02:22:43.270Z,81.71
2022-08-03T02:25:12.446Z,81.95
2022-08-03T02:28:02.128Z,83.29
2022-08-03T02:30:38.608Z,84.30
2022-08-03T02:33:11.192Z,84.58
2022-08-03T02:35:41.279Z,84.28
2022-08-03T02:38:11.566Z,83.65
2022-08-03T02:40:43.461Z,84.22
2022-08-03T02:43:16.603Z,84.69
2022-08-03T02:45:48.102Z,84.72
2022-08-03T02:48:23.545Z,84.64
2022-08-03T02:50:54.297Z,85.29
2022-08-03T02:53:24.158Z,85.59
2022-08-03T02:55:52.661Z,86.22
2022-08-03T02:58:24.078Z,86.74
2022-08-03T03:00:52.341Z,86.75
2022-08-03T03:03:21.293Z,86.95
2022-08-03T03:05:54.740Z,87.22
2022-08-03T03:08:28.817Z,87.30
2022-08-03T03:10:59.997Z,87.66
2022-08-03T03:13:29.312Z,87.61
2022-08-03T03:16:00.538Z,87.37
2022-08-03T03:18:28.460Z,87.76
2022-08-03T03:20:56.586Z,88.09
2022-08-03T03:23:26.470Z,87.71
2022-08-03T03:25:56.392Z,88.33
2022-08-03T03:28:24.970Z,88.03
2022-08-03T03:30:53.448Z,87.94
2022-08-03T03:33:22.754Z,87.14
2022-08-03T03:35:51.926Z,86.99
2022-08-03T03:38:19.999Z,86.83
2022-08-03T03:40:47.747Z,87.16
2022-08-03T03:43:15.460Z,86.75
2022-08-03T03:45:43.656Z,86.70
2022-08-03T03:48:11.441Z,87.17
2022-08-03T03:50:41.839Z,86.56
2022-08-03T03:53:11.171Z,86.57
2022-08-03T03:55:58.953Z,86.19
2022-08-03T03:58:26.246Z,86.20
2022-08-03T04:00:54.197Z,85.74
2022-08-03T04:03:21.483Z,85.61
2022-08-03T04:06:07.486Z,84.82
2022-08-03T04:08:53.671Z,84.62
2022-08-03T04:11:29.102Z,84.10
2022-08-03T04:14:04.071Z,84.63
2022-08-03T04:16:35.299Z,84.54
2022-08-03T04:19:08.330Z,84.65
2022-08-03T04:21:40.659Z,84.03
2022-08-03T04:24:11.197Z,83.66
2022-08-03T04:26:41.812Z,83.52
2022-08-03T04:29:12.125Z,83.11
2022-08-03T04:31:41.077Z,82.97
2022-08-03T04:34:08.715Z,82.57
2022-08-03T04:36:40.133Z,82.13
2022-08-03T04:39:12.335Z,81.33
2022-08-03T04:42:07.693Z,81.01
2022-08-03T04:44:30.604Z,80.45
2022-08-03T04:46:58.843Z,80.90
2022-08-03T04:49:27.550Z,80.70
2022-08-03T04:51:55.043Z,80.17
2022-08-03T04:54:22.202Z,79.48
2022-08-03T04:56:49.501Z,79.24
2022-08-03T04:59:18.014Z,78.69
2022-08-03T05:01:45.470Z,78.77
2022-08-03T05:04:12.977Z,78.41
2022-08-03T05:06:48.073Z,78.20
2022-08-03T05:09:48.920Z,77.57
2022-08-03T05:12:10.655Z,76.84
2022-08-03T05:14:39.040Z,76.02
2022-08-03T05:17:06.890Z,74.91
2022-08-03T05:19:36.399Z,74.14
2022-08-03T05:22:03.675Z,73.57
2022-08-03T05:24:31.206Z,72.86
2022-08-03T05:27:00.230Z,72.93
2022-08-03T05:29:27.497Z,71.89
2022-08-03T05:31:57.639Z,71.13
2022-08-03T05:34:25.563Z,71.10
2022-08-03T05:36:52.764Z,70.29
2022-08-03T05:39:20.560Z,70.78
2022-08-03T05:41:48.396Z,71.11
2022-08-03T05:44:17.931Z,69.77
2022-08-03T05:46:45.555Z,69.24
2022-08-03T05:49:13.065Z,68.98
2022-08-03T05:51:41.237Z,68.43
2022-08-03T05:54:09.100Z,68.15
2022-08-03T05:56:36.543Z,67.05
2022-08-03T05:59:28.780Z,65.66
2022-08-03T06:01:53.301Z,65.48
2022-08-03T06:04:20.854Z,65.16
2022-08-03T06:06:49.191Z,64.54
2022-08-03T06:09:17.826Z,62.50
2022-08-03T06:11:45.038Z,61.78
2022-08-03T06:14:13.281Z,60.13
2022-08-03T06:16:40.793Z,59.89
2022-08-03T06:19:08.888Z,59.52
2022-08-03T06:21:36.091Z,59.35
2022-08-03T06:24:07.440Z,58.63
2022-08-03T06:26:35.698Z,57.11
2022-08-03T06:29:03.928Z,57.80
2022-08-03T06:31:32.902Z,56.88
2022-08-03T06:34:34.056Z,56.09
2022-08-03T06:36:52.502Z,55.59
2022-08-03T06:39:20.712Z,55.26
2022-08-03T06:41:51.781Z,54.78
2022-08-03T06:44:18.787Z,54.84
2022-08-03T06:46:46.023Z,53.31
2022-08-03T06:49:13.744Z,53.05
2022-08-03T06:52:03.249Z,53.65
2022-08-03T06:54:32.931Z,53.59
2022-08-03T06:57:01.156Z,52.20
2022-08-03T07:00:10.294Z,52.61
2022-08-03T07:02:19.058Z,52.57
2022-08-03T07:04:50.614Z,52.57
2022-08-03T07:07:19.555Z,52.49
2022-08-03T07:09:56.979Z,52.09
2022-08-03T07:12:30.140Z,52.04
2022-08-03T07:15:01.244Z,51.29
2022-08-03T07:17:34.096Z,51.32
2022-08-03T07:20:03.886Z,50.07
2022-08-03T07:22:31.393Z,49.49
2022-08-03T07:24:59.292Z,49.40
2022-08-03T07:27:30.491Z,48.97
2022-08-03T07:29:58.980Z,46.62
2022-08-03T07:32:26.849Z,45.82
2022-08-03T07:34:58.442Z,45.29
2022-08-03T07:37:29.041Z,45.37
2022-08-03T07:39:56.374Z,45.41
2022-08-03T07:42:24.174Z,45.16
2022-08-03T07:44:51.543Z,45.56
2022-08-03T07:47:34.936Z,45.42
2022-08-03T07:50:04.738Z,43.86
2022-08-03T07:52:50.773Z,44.47
2022-08-03T07:55:23.010Z,44.19
2022-08-03T07:58:22.040Z,44.81
2022-08-03T08:00:53.174Z,44.19
2022-08-03T08:03:22.175Z,43.80
2022-08-03T08:05:49.591Z,43.50
2022-08-03T08:08:16.877Z,43.81
2022-08-03T08:10:58.273Z,43.05
2022-08-03T08:13:26.196Z,43.46
2022-08-03T08:15:53.237Z,43.72
2022-08-03T08:18:20.794Z,43.75
2022-08-03T08:20:48.044Z,43.02
2022-08-03T08:23:41.709Z,43.45
2022-08-03T08:26:02.923Z,42.89
2022-08-03T08:28:33.644Z,42.42
2022-08-03T08:31:01.870Z,42.65
2022-08-03T08:33:42.474Z,41.85
2022-08-03T08:36:16.827Z,43.08
2022-08-03T08:38:45.235Z,42.82
2022-08-03T08:41:14.551Z,41.80
2022-08-03T08:43:43.256Z,42.10
2022-08-03T08:46:23.737Z,42.12
2022-08-03T08:48:54.620Z,41.70
2022-08-03T08:51:22.786Z,42.20
2022-08-03T08:53:53.930Z,42.65
2022-08-03T08:56:25.596Z,41.94
2022-08-03T08:58:58.184Z,42.49
2022-08-03T09:01:25.708Z,41.45
2022-08-03T09:03:54.281Z,41.41
2022-08-03T09:06:23.020Z,41.24
2022-08-03T09:08:50.355Z,41.04
2022-08-03T09:11:22.219Z,41.29
2022-08-03T09:14:35.297Z,40.49
2022-08-03T09:17:04.072Z,40.82
2022-08-03T09:19:32.431Z,41.37
2022-08-03T09:22:20.526Z,40.35
2022-08-03T09:25:22.953Z,40.61
2022-08-03T09:27:46.858Z,39.63
2022-08-03T09:30:34.705Z,39.63
2022-08-03T09:33:04.777Z,39.94
2022-08-03T09:38:24.273Z,39.45
2022-08-03T09:40:55.912Z,39.18
2022-08-03T09:43:27.612Z,39.36
2022-08-03T09:46:04.331Z,38.71
2022-08-03T09:48:36.933Z,38.84
2022-08-03T09:51:14.227Z,39.19
2022-08-03T09:53:58.564Z,39.25
2022-08-03T09:56:42.748Z,39.23
2022-08-03T09:59:11.905Z,39.29
2022-08-03T10:01:43.031Z,38.77
2022-08-03T10:04:17.200Z,38.91
2022-08-03T10:06:46.518Z,38.93
2022-08-03T10:09:16.582Z,38.33
2022-08-03T10:11:47.006Z,38.47
2022-08-03T10:14:23.605Z,38.23
2022-08-03T10:16:51.036Z,38.39
2022-08-03T10:19:18.265Z,39.31
2022-08-03T10:21:54.078Z,39.28
2022-08-03T10:24:26.491Z,39.81
2022-08-03T10:27:00.500Z,39.10
2022-08-03T10:29:29.661Z,38.70
2022-08-03T10:31:59.560Z,38.99
2022-08-03T10:34:29.467Z,38.30
2022-08-03T10:37:00.274Z,39.31
2022-08-03T10:39:29.037Z,38.89
2022-08-03T10:41:59.784Z,38.27
2022-08-03T10:44:37.708Z,38.57
2022-08-03T10:47:05.733Z,38.55
2022-08-03T10:49:35.335Z,38.52
2022-08-03T10:52:12.974Z,39.19
2022-08-03T10:55:11.111Z,38.76
2022-08-03T10:57:59.100Z,38.27
2022-08-03T11:00:30.422Z,38.06
2022-08-03T11:03:11.359Z,38.31
2022-08-03T11:05:49.508Z,37.73
2022-08-03T11:08:37.781Z,37.88
2022-08-03T11:11:18.033Z,37.93
2022-08-03T11:14:12.978Z,37.61
2022-08-03T11:16:46.815Z,37.72
2022-08-03T11:19:22.769Z,37.61
2022-08-03T11:21:56.699Z,36.45
2022-08-03T11:24:43.815Z,35.89
2022-08-03T11:27:25.315Z,36.70
2022-08-03T11:30:08.058Z,36.27
2022-08-03T11:32:38.546Z,36.47
2022-08-03T11:35:19.117Z,35.20
2022-08-03T11:38:04.330Z,35.23
2022-08-03T11:40:37.290Z,35.54
2022-08-03T11:43:07.645Z,36.23
2022-08-03T11:45:36.669Z,36.33
2022-08-03T11:48:15.854Z,36.60
2022-08-03T11:50:45.677Z,36.26
2022-08-03T11:53:17.214Z,37.21
2022-08-03T11:55:48.989Z,36.89
2022-08-03T11:59:10.904Z,35.81
2022-08-03T12:01:11.545Z,34.51
2022-08-03T12:03:38.646Z,35.87
2022-08-03T12:06:11.639Z,34.99
2022-08-03T12:08:39.793Z,34.49
2022-08-03T12:11:09.086Z,34.27
2022-08-03T12:14:10.683Z,34.79
2022-08-03T12:16:38.610Z,34.85
2022-08-03T12:19:09.292Z,34.77
2022-08-03T12:21:56.941Z,34.44
2022-08-03T12:24:28.447Z,33.62
2022-08-03T12:27:00.089Z,33.96
2022-08-03T12:29:28.143Z,33.81
2022-08-03T12:31:56.319Z,34.01
2022-08-03T12:34:23.945Z,34.12
2022-08-03T12:36:59.810Z,34.78
2022-08-03T12:39:30.979Z,35.14
2022-08-03T12:41:59.137Z,34.94
2022-08-03T12:44:35.032Z,33.61
2022-08-03T12:47:04.665Z,33.27
2022-08-03T12:49:49.476Z,33.30
2022-08-03T12:52:18.568Z,32.96
2022-08-03T12:55:00.361Z,32.72
2022-08-03T12:57:41.984Z,32.13
2022-08-03T13:00:29.653Z,31.87
2022-08-03T13:05:54.954Z,31.94
2022-08-03T13:08:24.215Z,32.37
2022-08-03T13:10:52.372Z,32.64
2022-08-03T13:13:20.841Z,33.08
2022-08-03T13:15:48.392Z,32.64
2022-08-03T13:18:17.462Z,30.75
2022-08-03T13:20:44.902Z,30.42
2022-08-03T13:23:15.461Z,30.44
2022-08-03T13:25:55.946Z,31.43
2022-08-03T13:28:24.309Z,31.64
2022-08-03T13:30:51.725Z,31.79
2022-08-03T13:33:19.233Z,31.81
2022-08-03T13:35:46.733Z,32.34
2022-08-03T13:38:15.397Z,32.54
2022-08-03T13:40:46.067Z,32.93
2022-08-03T13:43:17.216Z,32.68
2022-08-03T13:45:49.488Z,32.41
2022-08-03T13:48:36.219Z,31.97
2022-08-03T13:51:22.274Z,32.29
2022-08-03T13:53:52.675Z,31.28
2022-08-03T13:56:20.148Z,31.15
2022-08-03T13:58:47.794Z,31.03
2022-08-03T14:01:15.056Z,31.30
2022-08-03T14:03:42.339Z,30.84
2022-08-03T14:06:09.767Z,31.07
2022-08-03T14:08:37.127Z,30.68
2022-08-03T14:11:04.480Z,30.26
2022-08-03T14:13:31.541Z,30.82
2022-08-03T14:15:58.977Z,29.58
2022-08-03T14:18:27.812Z,29.47
2022-08-03T14:21:05.823Z,30.71
2022-08-03T14:23:35.398Z,29.77
2022-08-03T14:26:03.159Z,29.76
2022-08-03T14:28:30.533Z,30.76
2022-08-03T14:30:58.365Z,30.06
2022-08-03T14:33:26.355Z,28.27
2022-08-03T14:35:53.859Z,28.48
2022-08-03T14:38:21.697Z,28.50
2022-08-03T14:40:49.053Z,27.88
2022-08-03T14:43:18.742Z,28.39
2022-08-03T14:45:46.113Z,29.10
2022-08-03T14:50:28.728Z,29.19
2022-08-03T14:51:01.552Z,29.55
2022-08-03T14:53:29.587Z,29.96
2022-08-03T14:55:57.514Z,30.71
2022-08-03T14:58:26.807Z,29.88
2022-08-03T15:00:55.305Z,29.88
2022-08-03T15:03:25.141Z,30.00
2022-08-03T15:05:57.196Z,29.38
2022-08-03T15:08:25.779Z,27.77
2022-08-03T15:10:56.455Z,28.66
2022-08-03T15:13:25.624Z,29.01
2022-08-03T15:15:52.828Z,28.78
2022-08-03T15:18:24.920Z,29.59
2022-08-03T15:20:52.349Z,28.69
2022-08-03T15:23:20.219Z,29.45
2022-08-03T15:26:29.356Z,29.32
2022-08-03T15:28:37.315Z,29.10
2022-08-03T15:31:05.903Z,29.04
2022-08-03T15:33:33.340Z,29.04
2022-08-03T15:36:03.524Z,28.92
2022-08-03T15:38:30.822Z,29.55
2022-08-03T15:40:59.133Z,29.46
2022-08-03T15:43:26.587Z,29.75
2022-08-03T15:48:42.151Z,30.25
2022-08-03T15:51:10.379Z,30.65
2022-08-03T15:53:38.481Z,30.56
2022-08-03T15:56:11.324Z,30.04
2022-08-03T15:59:03.758Z,29.33
2022-08-03T16:01:28.954Z,28.18
2022-08-03T16:03:56.385Z,28.01
2022-08-03T16:06:29.833Z,27.54
2022-08-03T16:09:23.728Z,27.14
2022-08-03T16:11:54.952Z,26.54
2022-08-03T16:14:34.253Z,26.94
2022-08-03T16:17:05.778Z,27.14
2022-08-03T16:19:33.481Z,26.69
2022-08-03T16:22:00.936Z,26.42
2022-08-03T16:24:28.497Z,26.49
2022-08-03T16:26:57.060Z,26.67
2022-08-03T16:29:24.389Z,26.86
2022-08-03T16:31:53.032Z,26.84
2022-08-03T16:34:21.111Z,27.67
2022-08-03T16:36:48.424Z,28.74
2022-08-03T16:39:15.858Z,28.65
2022-08-03T16:41:53.635Z,29.17
2022-08-03T16:44:30.805Z,29.41
2022-08-03T16:46:59.495Z,30.12
2022-08-03T16:49:53.957Z,30.37
2022-08-03T16:52:16.486Z,30.37
2022-08-03T16:54:52.686Z,31.24
2022-08-03T16:57:56.748Z,31.48
2022-08-03T17:00:32.911Z,32.11
2022-08-03T17:03:04.311Z,32.41
2022-08-03T17:05:43.801Z,32.81
2022-08-03T17:08:15.968Z,33.29
2022-08-03T17:10:45.212Z,34.28
2022-08-03T17:13:22.110Z,34.25
2022-08-03T17:16:00.886Z,34.79
2022-08-03T17:18:35.020Z,34.61
2022-08-03T17:21:05.958Z,35.31
2022-08-03T17:23:49.939Z,36.22
2022-08-03T17:26:21.867Z,36.41
2022-08-03T17:28:58.393Z,37.78
2022-08-03T17:31:31.081Z,38.25
2022-08-03T17:34:01.727Z,39.07
2022-08-03T17:36:54.006Z,39.57
2022-08-03T17:39:30.760Z,39.67
2022-08-03T17:42:31.217Z,40.31
2022-08-03T17:44:57.266Z,40.56
2022-08-03T17:47:28.971Z,40.42
2022-08-03T17:53:07.249Z,40.90
2022-08-03T17:55:54.824Z,41.22
2022-08-03T17:58:52.577Z,41.31
2022-08-03T18:02:00.809Z,41.11
2022-08-03T18:04:33.794Z,41.48
2022-08-03T18:07:11.159Z,41.79
2022-08-03T18:10:06.764Z,41.84
2022-08-03T18:12:40.501Z,42.30
2022-08-03T18:15:20.862Z,42.02
2022-08-03T18:17:55.077Z,42.16
2022-08-03T18:20:34.199Z,42.74
2022-08-03T18:23:06.760Z,42.61
2022-08-03T18:25:45.213Z,42.73
2022-08-03T18:28:19.131Z,43.18
2022-08-03T18:30:54.899Z,43.82
2022-08-03T18:34:16.705Z,44.02
2022-08-03T18:36:17.431Z,44.62
2022-08-03T18:38:48.142Z,44.81
2022-08-03T18:41:22.031Z,45.40
2022-08-03T18:44:06.882Z,46.19
2022-08-03T18:46:42.094Z,46.86
2022-08-03T18:49:35.656Z,47.71
2022-08-03T18:52:12.368Z,47.42
2022-08-03T18:55:01.061Z,47.82
2022-08-03T18:57:44.538Z,47.74
2022-08-03T19:00:16.648Z,48.19
2022-08-03T19:02:48.853Z,47.95
2022-08-03T19:05:22.766Z,48.35
2022-08-03T19:07:59.801Z,48.52
2022-08-03T19:10:34.265Z,49.53
2022-08-03T19:13:31.114Z,50.41
2022-08-03T19:16:04.742Z,50.15
2022-08-03T19:18:38.939Z,50.67
2022-08-03T19:21:12.754Z,50.66
2022-08-03T19:23:48.891Z,51.02
2022-08-03T19:26:26.696Z,52.05
2022-08-03T19:28:59.182Z,52.72
2022-08-03T19:31:30.913Z,53.82
2022-08-03T19:34:03.301Z,54.57
2022-08-03T19:36:33.517Z,54.44
2022-08-03T19:39:09.013Z,54.80
2022-08-03T19:41:41.955Z,55.19
2022-08-03T19:44:20.191Z,55.55
2022-08-03T19:47:00.874Z,55.74
2022-08-03T19:50:06.283Z,56.25
2022-08-03T19:52:31.294Z,56.17
2022-08-03T19:55:01.182Z,57.01
2022-08-03T19:57:30.334Z,57.07
2022-08-03T19:59:59.719Z,56.70
2022-08-03T20:02:36.505Z,56.67
2022-08-03T20:05:14.792Z,56.84
2022-08-03T20:07:47.618Z,56.85
2022-08-03T20:10:16.710Z,57.09
2022-08-03T20:12:45.486Z,57.50
2022-08-03T20:15:13.247Z,58.12
2022-08-03T20:17:56.309Z,57.96
2022-08-03T20:20:34.937Z,57.86
2022-08-03T20:23:10.371Z,57.60
2022-08-03T20:25:55.758Z,58.93
2022-08-03T20:28:32.277Z,59.51
2022-08-03T20:31:00.467Z,60.16
2022-08-03T20:33:46.065Z,60.89
2022-08-03T20:36:17.886Z,61.67
2022-08-03T20:38:47.902Z,62.13
2022-08-03T20:41:17.257Z,62.21
2022-08-03T20:43:45.080Z,61.60
2022-08-03T20:46:31.987Z,61.68
2022-08-03T20:49:04.917Z,61.86
2022-08-03T20:51:50.471Z,62.03
2022-08-03T20:54:29.705Z,62.24
2022-08-03T20:57:00.488Z,62.46
2022-08-03T20:59:38.490Z,63.10
2022-08-03T21:02:19.805Z,63.50
2022-08-03T21:04:56.913Z,63.81
2022-08-03T21:07:45.924Z,64.20
2022-08-03T21:10:16.667Z,64.60
2022-08-03T21:12:55.448Z,40.80
2022-08-03T21:13:16.905Z,64.96
2022-08-03T21:16:03.333Z,64.72
2022-08-03T21:18:37.361Z,65.19
2022-08-03T21:21:07.040Z,64.64
2022-08-03T21:23:49.166Z,64.47
2022-08-03T21:26:22.850Z,64.51
2022-08-03T21:28:53.554Z,64.54
2022-08-03T21:31:24.217Z,64.33
2022-08-03T21:33:58.336Z,64.60
2022-08-03T21:36:31.342Z,64.62
2022-08-03T21:38:59.391Z,65.16
2022-08-03T21:41:31.295Z,65.37
2022-08-03T21:44:00.366Z,65.58
2022-08-03T21:46:34.298Z,65.95
2022-08-03T21:50:04.434Z,66.12
2022-08-03T21:51:54.181Z,66.51
2022-08-03T21:54:23.841Z,66.34
2022-08-03T21:56:54.530Z,66.42
2022-08-03T21:59:23.849Z,66.45
2022-08-03T22:01:55.238Z,66.40
2022-08-03T22:04:53.422Z,66.25
2022-08-03T22:07:15.131Z,66.62
2022-08-03T22:09:50.145Z,66.66
2022-08-03T22:12:24.330Z,66.83
2022-08-03T22:15:00.773Z,67.08
2022-08-03T22:17:55.884Z,67.07
2022-08-03T22:20:25.308Z,68.04
2022-08-03T22:23:00.880Z,68.64
2022-08-03T22:25:30.908Z,68.22
2022-08-03T22:28:05.191Z,68.64
2022-08-03T22:30:33.395Z,68.88
2022-08-03T22:33:03.198Z,68.88
2022-08-03T22:35:47.224Z,69.76
2022-08-03T22:38:18.111Z,70.58
2022-08-03T22:40:48.928Z,70.62
2022-08-03T22:43:16.778Z,70.41
2022-08-03T22:46:09.714Z,70.09
2022-08-03T22:48:35.823Z,70.18
2022-08-03T22:51:08.173Z,70.19
2022-08-03T22:53:36.386Z,69.86
2022-08-03T22:56:03.951Z,69.92
2022-08-03T22:58:31.081Z,69.84
2022-08-03T23:01:03.336Z,70.37
2022-08-03T23:04:00.712Z,71.07
2022-08-03T23:06:27.116Z,72.46
2022-08-03T23:08:55.213Z,72.68
2022-08-03T23:11:24.497Z,72.68
2022-08-03T23:13:54.362Z,72.52
2022-08-03T23:16:29.088Z,72.03
2022-08-03T23:18:59.731Z,71.96
2022-08-03T23:21:53.327Z,72.08
2022-08-03T23:24:29.508Z,71.79
2022-08-03T23:26:59.030Z,71.78
2022-08-03T23:29:28.860Z,71.87
2022-08-03T23:31:56.588Z,71.80
2022-08-03T23:34:43.385Z,71.31
2022-08-03T23:37:14.720Z,71.59
2022-08-03T23:39:45.744Z,71.33
2022-08-03T23:42:19.069Z,70.77
2022-08-03T23:44:46.784Z,70.62
2022-08-03T23:47:14.508Z,71.16
2022-08-03T23:49:41.895Z,71.38
2022-08-03T23:52:15.873Z,71.41
2022-08-03T23:55:26.270Z,71.82
2022-08-03T23:58:15.548Z,72.54
